Time;durP1;ratioP1;P1;durP2;ratioP2;P2;SDS_P1;SDS_P2;PMS_P1;PMS_P2;Temp;Humidity;BMP_temperature;BMP_pressure;BME280_temperature;BME280_humidity;BME280_pressure;Samples;Min_cycle;Max_cycle;Signal;HPM_P1;HPM_P2
2021/06/06 00:01:37;;;;;;;21.83;11.05;;;16.60;95.10;;;;;;4952617;29;20520;-80
2021/06/06 00:04:03;;;;;;;28.83;12.40;;;16.60;95.10;;;;;;4953464;29;20535;-80
2021/06/06 00:06:31;;;;;;;27.65;11.15;;;16.60;95.10;;;;;;4952639;29;20106;-79
2021/06/06 00:08:58;;;;;;;23.20;11.15;;;16.60;95.10;;;;;;4953071;29;20031;-79
2021/06/06 00:11:27;;;;;;;23.08;10.80;;;16.60;95.20;;;;;;4953935;29;20030;-79
2021/06/06 00:13:55;;;;;;;21.52;10.30;;;16.60;95.10;;;;;;4953227;29;20131;-79
2021/06/06 00:16:34;;;;;;;23.88;10.98;;;16.60;95.10;;;;;;4952550;29;20023;-79
2021/06/06 00:19:00;;;;;;;24.02;10.63;;;16.60;95.10;;;;;;4952109;29;20047;-79
2021/06/06 00:21:29;;;;;;;24.42;10.80;;;16.60;95.10;;;;;;4953851;29;20020;-79
2021/06/06 00:23:55;;;;;;;28.15;11.70;;;16.60;95.10;;;;;;4951831;29;20114;-78
2021/06/06 00:26:22;;;;;;;32.78;11.80;;;16.60;94.90;;;;;;4952572;29;20019;-79
2021/06/06 00:28:47;;;;;;;26.67;10.77;;;16.60;94.90;;;;;;4953191;29;20448;-78
2021/06/06 00:31:14;;;;;;;23.98;11.23;;;16.50;94.80;;;;;;4954209;29;20099;-78
2021/06/06 00:33:40;;;;;;;25.40;10.77;;;16.50;94.90;;;;;;4952504;29;20375;-79
2021/06/06 00:36:10;;;;;;;25.10;10.95;;;16.50;95.00;;;;;;4951945;29;20015;-79
2021/06/06 00:38:36;;;;;;;23.75;11.10;;;16.50;95.00;;;;;;4952799;28;20019;-79
2021/06/06 00:41:04;;;;;;;24.40;10.30;;;16.50;95.00;;;;;;4958391;29;20094;-79
2021/06/06 00:43:30;;;;;;;26.02;11.13;;;16.60;94.80;;;;;;4942602;29;20431;-79
2021/06/06 00:45:58;;;;;;;23.42;9.98;;;16.60;94.90;;;;;;4956965;29;20460;-78
2021/06/06 00:48:24;;;;;;;25.25;10.65;;;16.60;94.90;;;;;;4957096;29;20027;-78
2021/06/06 00:50:54;;;;;;;25.20;10.73;;;16.60;94.90;;;;;;4956696;29;20028;-79
2021/06/06 00:53:36;;;;;;;26.57;11.33;;;16.60;94.80;;;;;;4957605;29;20054;-78
2021/06/06 00:56:04;;;;;;;24.05;10.45;;;16.50;94.80;;;;;;4956872;29;20310;-79
2021/06/06 00:58:30;;;;;;;23.20;11.05;;;16.60;94.90;;;;;;4955966;29;20110;-79
2021/06/06 01:00:58;;;;;;;19.80;9.55;;;16.60;94.90;;;;;;4955308;29;20023;-79
2021/06/06 01:03:25;;;;;;;23.60;10.15;;;16.60;95.10;;;;;;4939799;29;20026;-78
2021/06/06 01:05:54;;;;;;;22.77;10.90;;;16.60;94.80;;;;;;4956478;29;20435;-79
2021/06/06 01:08:20;;;;;;;22.75;10.18;;;16.60;94.80;;;;;;4957121;29;20023;-79
2021/06/06 01:10:51;;;;;;;24.30;10.32;;;16.60;94.80;;;;;;4956352;29;20045;-78
2021/06/06 01:13:21;;;;;;;22.98;10.05;;;16.60;94.80;;;;;;4939946;29;20023;-79
2021/06/06 01:15:55;;;;;;;25.58;11.27;;;16.60;94.80;;;;;;4956277;29;20027;-79
2021/06/06 01:18:38;;;;;;;25.90;11.95;;;16.50;94.60;;;;;;4955666;29;20018;-79
2021/06/06 01:21:26;;;;;;;26.52;11.75;;;16.50;94.60;;;;;;4954922;29;20039;-79
2021/06/06 01:24:14;;;;;;;25.77;10.35;;;16.50;94.50;;;;;;4938740;29;20023;-78
2021/06/06 01:26:50;;;;;;;28.42;11.23;;;16.50;94.60;;;;;;4955331;29;20011;-78
2021/06/06 01:29:22;;;;;;;21.58;11.02;;;16.50;94.70;;;;;;4955360;29;20019;-77
2021/06/06 01:31:53;;;;;;;21.02;9.60;;;16.50;94.40;;;;;;4938650;29;20122;-78
2021/06/06 01:34:23;;;;;;;22.42;10.60;;;16.50;94.40;;;;;;4956594;29;20027;-78
2021/06/06 01:37:18;;;;;;;21.55;10.27;;;16.60;94.30;;;;;;4954546;29;20467;-78
2021/06/06 01:39:51;;;;;;;27.98;11.98;;;16.50;94.30;;;;;;4954458;29;20035;-79
2021/06/06 01:42:29;;;;;;;23.55;11.10;;;16.50;94.20;;;;;;4956343;28;20043;-79
2021/06/06 01:45:01;;;;;;;20.50;9.90;;;16.50;94.30;;;;;;4954543;29;20363;-79
2021/06/06 01:47:28;;;;;;;21.30;10.90;;;16.50;94.30;;;;;;4938946;29;20019;-79
2021/06/06 01:49:59;;;;;;;23.65;10.85;;;16.50;94.30;;;;;;4938401;29;20019;-79
2021/06/06 01:52:34;;;;;;;20.80;10.15;;;16.50;94.20;;;;;;4939248;29;20041;-78
2021/06/06 01:55:03;;;;;;;25.40;11.80;;;16.50;94.20;;;;;;4954372;29;20046;-78
2021/06/06 01:57:31;;;;;;;20.25;10.35;;;16.50;94.20;;;;;;4956403;29;20050;-79
2021/06/06 02:00:00;;;;;;;24.92;10.77;;;16.50;94.20;;;;;;4955831;29;20023;-79
2021/06/06 02:02:26;;;;;;;24.23;12.15;;;16.50;94.20;;;;;;4939120;29;20023;-79
2021/06/06 02:04:53;;;;;;;24.58;10.60;;;16.50;94.10;;;;;;4954267;29;20486;-79
2021/06/06 02:07:21;;;;;;;22.75;11.45;;;16.50;94.00;;;;;;4954723;29;20515;-79
2021/06/06 02:09:56;;;;;;;23.63;11.00;;;16.40;94.00;;;;;;4938752;29;20032;-79
2021/06/06 02:12:25;;;;;;;26.17;10.70;;;16.40;93.90;;;;;;4955649;29;20160;-78
2021/06/06 02:14:51;;;;;;;23.77;10.70;;;16.40;94.00;;;;;;4955181;29;20055;-78
2021/06/06 02:17:30;;;;;;;22.70;11.57;;;16.40;94.00;;;;;;4954605;29;20066;-78
2021/06/06 02:19:59;;;;;;;20.45;10.43;;;16.40;93.90;;;;;;4954116;29;20019;-79
2021/06/06 02:22:28;;;;;;;25.13;10.77;;;16.40;94.00;;;;;;4956386;29;20087;-79
2021/06/06 02:24:54;;;;;;;22.05;10.88;;;16.40;94.00;;;;;;4955203;29;20049;-78
2021/06/06 02:27:37;;;;;;;24.75;12.45;;;16.40;94.10;;;;;;4955720;29;20514;-79
2021/06/06 02:30:09;;;;;;;21.70;11.02;;;16.40;94.10;;;;;;4955187;29;20027;-78
2021/06/06 02:32:44;;;;;;;24.85;12.52;;;16.40;94.00;;;;;;4955669;29;20031;-79
2021/06/06 02:35:35;;;;;;;28.42;13.20;;;16.40;94.00;;;;;;4954761;29;20023;-78
2021/06/06 02:38:01;;;;;;;;;;;16.30;93.90;;;;;;4955220;29;20094;-79
2021/06/06 02:40:37;;;;;;;22.67;10.77;;;16.20;94.00;;;;;;4938369;29;19996;-78
2021/06/06 02:43:20;;;;;;;25.52;11.93;;;16.30;94.00;;;;;;4956632;28;20046;-80
2021/06/06 02:45:47;;;;;;;27.20;11.90;;;16.30;93.90;;;;;;4938161;29;20054;-78
2021/06/06 02:48:17;;;;;;;31.95;12.43;;;16.20;93.90;;;;;;4954375;29;20483;-79
2021/06/06 02:50:45;;;;;;;24.73;11.80;;;16.20;93.90;;;;;;4937727;29;20015;-79
2021/06/06 02:53:20;;;;;;;31.42;13.23;;;16.20;94.00;;;;;;4954453;29;20310;-79
2021/06/06 02:55:54;;;;;;;28.15;12.95;;;16.20;94.00;;;;;;4954938;29;20027;-79
2021/06/06 02:58:29;;;;;;;30.60;12.90;;;16.20;94.10;;;;;;4953472;29;20022;-79
2021/06/06 03:01:10;;;;;;;31.88;12.98;;;16.20;94.20;;;;;;4937351;29;20113;-78
2021/06/06 03:03:38;;;;;;;27.75;12.70;;;16.10;94.20;;;;;;4954777;29;20038;-79
2021/06/06 03:06:10;;;;;;;25.33;10.90;;;16.10;94.30;;;;;;4954014;29;20023;-79
2021/06/06 03:08:36;;;;;;;24.10;11.30;;;16.10;94.30;;;;;;4954631;29;20046;-79
2021/06/06 03:11:04;;;;;;;21.48;11.00;;;16.20;94.30;;;;;;4953952;29;20019;-78
2021/06/06 03:13:38;;;;;;;26.17;13.02;;;16.10;94.30;;;;;;4955068;29;20027;-79
2021/06/06 03:16:05;;;;;;;26.95;12.10;;;16.10;94.30;;;;;;4953101;29;20419;-79
2021/06/06 03:18:34;;;;;;;26.90;11.63;;;16.10;94.40;;;;;;4953465;29;20023;-78
2021/06/06 03:21:13;;;;;;;25.08;11.27;;;16.10;94.40;;;;;;4953788;29;20476;-79
2021/06/06 03:23:41;;;;;;;31.73;12.57;;;16.20;94.40;;;;;;4954565;29;20156;-78
2021/06/06 03:26:11;;;;;;;30.58;13.02;;;16.20;94.20;;;;;;4953942;29;20027;-77
2021/06/06 03:28:39;;;;;;;33.33;13.43;;;16.10;94.30;;;;;;4953296;29;20043;-79
2021/06/06 03:31:18;;;;;;;32.95;12.82;;;16.10;94.40;;;;;;4953572;29;20455;-78
2021/06/06 03:33:50;;;;;;;29.70;12.45;;;16.10;94.40;;;;;;4954136;29;20032;-80
2021/06/06 03:36:20;;;;;;;34.58;14.38;;;16.10;94.30;;;;;;4936473;29;20106;-79
2021/06/06 03:38:45;;;;;;;37.47;15.15;;;16.20;94.30;;;;;;4952769;29;20030;-78
2021/06/06 03:41:11;;;;;;;33.58;14.75;;;16.10;94.20;;;;;;4936413;29;20019;-78
2021/06/06 03:43:37;;;;;;;28.08;13.73;;;16.10;94.20;;;;;;4952643;28;20475;-78
2021/06/06 03:46:04;;;;;;;35.08;14.23;;;16.10;94.20;;;;;;4954189;29;20095;-79
2021/06/06 03:48:30;;;;;;;30.48;13.75;;;16.00;94.30;;;;;;4954392;29;20349;-78
2021/06/06 03:50:57;;;;;;;34.00;14.80;;;16.00;94.30;;;;;;4953930;29;20030;-78
2021/06/06 03:53:24;;;;;;;29.27;13.82;;;16.10;94.30;;;;;;4952543;29;20024;-79
2021/06/06 03:55:50;;;;;;;29.23;12.10;;;16.10;94.20;;;;;;4954165;29;20027;-79
2021/06/06 03:58:16;;;;;;;31.67;14.25;;;16.20;94.20;;;;;;4953586;29;20026;-79
2021/06/06 04:00:45;;;;;;;31.10;13.45;;;16.10;94.20;;;;;;4952789;29;20114;-79
2021/06/06 04:03:11;;;;;;;31.60;13.98;;;16.10;94.20;;;;;;4953527;29;20140;-79
2021/06/06 04:05:37;;;;;;;30.30;12.98;;;16.10;94.10;;;;;;4953725;29;20468;-79
2021/06/06 04:08:05;;;;;;;30.63;13.82;;;16.10;94.10;;;;;;4953377;29;20027;-79
2021/06/06 04:10:31;;;;;;;31.95;12.70;;;16.10;94.10;;;;;;4954010;29;20023;-78
2021/06/06 04:12:57;;;;;;;26.60;12.18;;;16.10;94.10;;;;;;4953611;29;20023;-78
2021/06/06 04:15:22;;;;;;;30.27;12.60;;;16.20;94.20;;;;;;4952569;29;20031;-78
2021/06/06 04:17:49;;;;;;;27.70;13.40;;;16.20;94.10;;;;;;4936803;29;20155;-79
2021/06/06 04:20:17;;;;;;;25.30;12.07;;;16.20;94.10;;;;;;4951990;29;20478;-79
2021/06/06 04:22:43;;;;;;;30.48;14.25;;;16.30;94.00;;;;;;4952129;29;20077;-79
2021/06/06 04:25:10;;;;;;;26.92;13.18;;;16.20;93.90;;;;;;4936044;29;20117;-78
2021/06/06 04:27:36;;;;;;;28.30;13.10;;;16.20;93.90;;;;;;4952712;29;20030;-78
2021/06/06 04:30:04;;;;;;;36.00;13.55;;;16.20;94.00;;;;;;4953896;29;20031;-78
2021/06/06 04:32:30;;;;;;;29.70;11.88;;;16.20;94.00;;;;;;4953833;29;20023;-78
2021/06/06 04:34:56;;;;;;;32.78;14.95;;;16.20;93.90;;;;;;4953480;29;20035;-78
2021/06/06 04:37:21;;;;;;;28.05;13.00;;;16.20;93.90;;;;;;4953143;29;20019;-79
2021/06/06 04:39:47;;;;;;;30.15;13.65;;;16.10;93.90;;;;;;4936371;29;20027;-79
2021/06/06 04:42:18;;;;;;;32.33;15.32;;;16.10;94.00;;;;;;4953242;28;20077;-79
2021/06/06 04:44:43;;;;;;;28.17;13.67;;;16.10;94.00;;;;;;4973242;28;20043;-78
2021/06/06 04:47:09;;;;;;;26.35;12.65;;;16.10;94.00;;;;;;4954761;28;20034;-79
2021/06/06 04:49:36;;;;;;;27.65;12.70;;;16.10;94.10;;;;;;4972709;28;20029;-79
2021/06/06 04:52:03;;;;;;;29.33;13.38;;;16.20;94.10;;;;;;4972054;28;20023;-78
2021/06/06 04:54:28;;;;;;;31.08;13.55;;;16.20;94.10;;;;;;4955488;28;20022;-79
2021/06/06 04:56:54;;;;;;;28.60;13.18;;;16.20;94.10;;;;;;4972650;28;20415;-78
2021/06/06 04:59:20;;;;;;;26.90;12.20;;;16.10;94.10;;;;;;4972266;28;20054;-79
2021/06/06 05:01:45;;;;;;;29.45;12.95;;;16.10;94.20;;;;;;4972772;28;20034;-78
2021/06/06 05:04:11;;;;;;;28.23;13.13;;;16.10;94.20;;;;;;4972330;28;20023;-78
2021/06/06 05:06:36;;;;;;;32.35;14.25;;;16.10;94.30;;;;;;4972779;28;20037;-78
2021/06/06 05:09:04;;;;;;;28.88;12.27;;;16.10;94.40;;;;;;4971851;28;20359;-78
2021/06/06 05:11:29;;;;;;;24.50;11.57;;;16.10;94.40;;;;;;4955374;28;20034;-78
2021/06/06 05:13:55;;;;;;;27.73;12.95;;;16.10;94.30;;;;;;4972623;28;20031;-80
2021/06/06 05:16:21;;;;;;;25.92;11.80;;;16.10;94.40;;;;;;4971817;28;20030;-79
2021/06/06 05:18:47;;;;;;;22.25;11.35;;;16.10;94.40;;;;;;4955155;28;20030;-79
2021/06/06 05:21:13;;;;;;;23.95;11.27;;;16.10;94.30;;;;;;4971974;28;20023;-79
2021/06/06 05:23:39;;;;;;;21.00;10.52;;;16.10;94.30;;;;;;4955235;28;20030;-78
2021/06/06 05:26:05;;;;;;;24.85;10.93;;;16.10;94.30;;;;;;4974745;28;20023;-79
2021/06/06 05:28:33;;;;;;;25.30;11.27;;;16.10;94.30;;;;;;4975977;28;20015;-79
2021/06/06 05:31:00;;;;;;;25.38;11.63;;;16.20;94.40;;;;;;4976251;28;20504;-78
2021/06/06 05:33:26;;;;;;;24.48;12.05;;;16.20;94.40;;;;;;4975276;28;20106;-78
2021/06/06 05:35:52;;;;;;;21.75;11.15;;;16.10;94.40;;;;;;4975888;28;20094;-79
2021/06/06 05:38:20;;;;;;;21.45;10.07;;;16.20;94.40;;;;;;4975144;28;20019;-79
2021/06/06 05:40:45;;;;;;;25.98;11.15;;;16.20;94.40;;;;;;4975816;28;20027;-79
2021/06/06 05:43:12;;;;;;;26.45;10.73;;;16.20;94.40;;;;;;4968860;28;20344;-78
2021/06/06 05:45:39;;;;;;;20.55;9.93;;;16.30;94.30;;;;;;4955665;29;20038;-79
2021/06/06 05:48:07;;;;;;;25.58;11.07;;;16.20;94.30;;;;;;4957680;29;20027;-79
2021/06/06 05:50:36;;;;;;;20.00;9.57;;;16.30;94.40;;;;;;4939815;29;20039;-78
2021/06/06 05:53:03;;;;;;;22.50;10.43;;;16.20;94.30;;;;;;4939263;29;20019;-79
2021/06/06 05:55:29;;;;;;;21.30;10.35;;;16.30;94.30;;;;;;4955878;29;20035;-78
2021/06/06 05:57:54;;;;;;;21.75;10.82;;;16.30;94.30;;;;;;4939023;29;20419;-78
2021/06/06 06:00:28;;;;;;;24.23;10.27;;;16.30;94.20;;;;;;4955720;29;20019;-77
2021/06/06 06:02:54;;;;;;;24.05;10.40;;;16.30;94.30;;;;;;4934213;29;20030;-77
2021/06/06 06:05:20;;;;;;;18.60;9.75;;;16.30;94.40;;;;;;4937413;29;20371;-76
2021/06/06 06:07:46;;;;;;;18.80;10.00;;;16.30;94.30;;;;;;4938742;29;20023;-76
2021/06/06 06:10:15;;;;;;;22.17;9.98;;;16.30;94.30;;;;;;4938132;29;20366;-77
2021/06/06 06:12:40;;;;;;;20.45;10.38;;;16.30;94.30;;;;;;4955852;29;20019;-74
2021/06/06 06:15:07;;;;;;;20.48;10.10;;;16.30;94.30;;;;;;4955547;29;20467;-78
2021/06/06 06:17:34;;;;;;;24.08;11.15;;;16.30;94.20;;;;;;4955041;29;20026;-72
2021/06/06 06:20:00;;;;;;;23.17;11.32;;;16.40;94.20;;;;;;4955569;29;20456;-76
2021/06/06 06:22:26;;;;;;;24.75;10.55;;;16.40;94.20;;;;;;4955476;29;20026;-76
2021/06/06 06:24:52;;;;;;;22.67;10.52;;;16.40;94.20;;;;;;4942252;29;20368;-77
2021/06/06 06:27:17;;;;;;;22.63;10.52;;;16.40;94.20;;;;;;4918894;29;20030;-78
2021/06/06 06:29:43;;;;;;;20.25;10.40;;;16.40;94.00;;;;;;4919407;29;20030;-79
2021/06/06 06:32:09;;;;;;;26.38;12.13;;;16.40;94.00;;;;;;4918910;29;20049;-78
2021/06/06 06:34:35;;;;;;;18.98;10.52;;;16.50;94.00;;;;;;4943149;29;20456;-77
2021/06/06 06:37:00;;;;;;;25.05;10.90;;;16.60;93.90;;;;;;4954733;28;20020;-76
2021/06/06 06:39:26;;;;;;;21.33;11.52;;;16.60;93.80;;;;;;4955186;29;20051;-77
2021/06/06 06:41:52;;;;;;;24.65;10.75;;;16.60;93.70;;;;;;4954878;29;20038;-77
2021/06/06 06:44:18;;;;;;;19.67;10.50;;;16.60;93.70;;;;;;4941484;29;20040;-76
2021/06/06 06:46:43;;;;;;;21.58;10.40;;;16.60;93.60;;;;;;4954207;29;20523;-78
2021/06/06 06:49:09;;;;;;;21.58;9.90;;;16.70;93.60;;;;;;4955271;29;20039;-77
2021/06/06 06:51:36;;;;;;;20.10;10.68;;;16.80;93.60;;;;;;4950368;29;20106;-77
2021/06/06 06:54:01;;;;;;;20.08;10.25;;;16.80;93.50;;;;;;4952624;29;20035;-78
2021/06/06 06:56:28;;;;;;;19.05;10.70;;;16.90;93.40;;;;;;4949148;29;20035;-77
2021/06/06 06:58:58;;;;;;;21.17;9.90;;;16.90;93.30;;;;;;4945262;29;20023;-77
2021/06/06 07:01:24;;;;;;;19.23;9.35;;;16.90;93.30;;;;;;4949953;29;20023;-78
2021/06/06 07:03:50;;;;;;;18.20;10.35;;;17.00;93.30;;;;;;4951158;29;20122;-78
2021/06/06 07:06:18;;;;;;;20.40;9.85;;;17.00;93.20;;;;;;4941872;29;20024;-77
2021/06/06 07:08:45;;;;;;;17.55;9.60;;;17.10;93.10;;;;;;4940693;29;20026;-76
2021/06/06 07:11:15;;;;;;;16.20;9.25;;;17.10;93.00;;;;;;4948419;29;20478;-78
2021/06/06 07:13:41;;;;;;;17.77;8.53;;;17.20;92.80;;;;;;4954453;29;20379;-77
2021/06/06 07:16:09;;;;;;;17.10;9.35;;;17.20;92.80;;;;;;4954432;28;20485;-77
2021/06/06 07:18:35;;;;;;;17.65;8.80;;;17.20;92.80;;;;;;4964751;28;20034;-77
2021/06/06 07:21:11;;;;;;;16.63;8.55;;;17.30;92.70;;;;;;4956011;28;20022;-77
2021/06/06 07:23:37;;;;;;;14.32;8.88;;;17.30;92.70;;;;;;4974036;28;20030;-78
2021/06/06 07:26:10;;;;;;;16.13;9.00;;;17.30;92.60;;;;;;4974124;28;20069;-77
2021/06/06 07:28:36;;;;;;;14.13;8.52;;;17.30;92.90;;;;;;4972943;28;20034;-76
2021/06/06 07:31:03;;;;;;;17.65;9.55;;;17.40;92.50;;;;;;4973836;28;20019;-77
2021/06/06 07:33:34;;;;;;;16.75;9.15;;;17.40;92.30;;;;;;4955709;28;20026;-77
2021/06/06 07:36:01;;;;;;;14.00;7.72;;;17.50;92.20;;;;;;4973542;28;20392;-77
2021/06/06 07:38:27;;;;;;;14.15;8.13;;;17.60;92.00;;;;;;4955756;28;20400;-77
2021/06/06 07:40:55;;;;;;;18.05;9.23;;;17.60;92.00;;;;;;4957307;28;20037;-77
2021/06/06 07:43:21;;;;;;;17.17;9.48;;;17.70;91.80;;;;;;4964482;28;20053;-78
2021/06/06 07:45:48;;;;;;;15.52;8.60;;;17.70;91.80;;;;;;4992765;28;20033;-77
2021/06/06 07:48:14;;;;;;;19.92;8.57;;;17.80;91.80;;;;;;4975460;28;20054;-77
2021/06/06 07:50:43;;;;;;;14.65;7.85;;;17.70;91.80;;;;;;4992734;28;20030;-78
2021/06/06 07:53:10;;;;;;;15.98;9.40;;;17.80;91.80;;;;;;4992657;28;20454;-77
2021/06/06 07:55:37;;;;;;;15.57;9.38;;;17.70;91.70;;;;;;4974748;28;20113;-78
2021/06/06 07:58:03;;;;;;;16.13;8.48;;;17.70;91.60;;;;;;4975437;28;20020;-77
2021/06/06 08:00:36;;;;;;;16.77;9.65;;;17.70;91.70;;;;;;4992292;28;20057;-76
2021/06/06 08:03:03;;;;;;;15.85;9.30;;;17.70;91.70;;;;;;4975543;28;20378;-77
2021/06/06 08:05:29;;;;;;;14.63;8.35;;;17.60;91.70;;;;;;4974417;28;20026;-76
2021/06/06 08:07:55;;;;;;;13.50;8.68;;;17.60;91.70;;;;;;4975437;28;20047;-76
2021/06/06 08:10:24;;;;;;;16.23;8.65;;;17.60;91.60;;;;;;4992306;28;20061;-78
2021/06/06 08:12:50;;;;;;;15.02;7.72;;;17.60;91.60;;;;;;4975927;28;20018;-76
2021/06/06 08:15:19;;;;;;;12.75;7.80;;;17.60;91.60;;;;;;4975215;28;20029;-77
2021/06/06 08:17:45;;;;;;;15.65;8.13;;;17.70;91.60;;;;;;4992687;28;20018;-78
2021/06/06 08:20:16;;;;;;;18.02;8.80;;;17.70;91.60;;;;;;4992726;28;20446;-78
2021/06/06 08:22:42;;;;;;;13.85;8.23;;;17.70;91.50;;;;;;4992485;28;20458;-77
2021/06/06 08:25:10;;;;;;;11.02;6.65;;;17.80;91.50;;;;;;4975007;28;20034;-77
2021/06/06 08:27:37;;;;;;;18.73;8.85;;;17.80;91.40;;;;;;4974542;28;20015;-76
2021/06/06 08:30:29;;;;;;;13.63;7.43;;;17.80;91.30;;;;;;4975244;28;20474;-77
2021/06/06 08:32:55;;;;;;;14.65;7.90;;;17.90;91.20;;;;;;4982451;28;20037;-78
2021/06/06 08:35:21;;;;;;;10.55;7.18;;;18.00;91.10;;;;;;4974335;28;20474;-77
2021/06/06 08:37:47;;;;;;;12.18;7.53;;;18.10;91.00;;;;;;4992393;28;20026;-78
2021/06/06 08:40:18;;;;;;;12.27;7.70;;;18.20;90.80;;;;;;4992518;28;20014;-77
2021/06/06 08:42:46;;;;;;;12.95;7.20;;;18.20;90.60;;;;;;4974402;28;20101;-77
2021/06/06 08:45:27;;;;;;;10.05;6.75;;;18.30;90.60;;;;;;4974977;28;20037;-77
2021/06/06 08:47:56;;;;;;;10.43;6.93;;;18.30;90.20;;;;;;4974996;28;20045;-77
2021/06/06 08:50:43;;;;;;;10.73;6.32;;;18.50;90.10;;;;;;4974254;28;20065;-77
2021/06/06 08:53:44;;;;;;;10.73;6.65;;;18.50;90.00;;;;;;4991876;28;20066;-76
2021/06/06 08:56:22;;;;;;;10.70;6.93;;;18.60;89.80;;;;;;4975071;28;20026;-80
2021/06/06 08:59:07;;;;;;;12.50;7.50;;;18.70;89.60;;;;;;4975097;28;20280;-76
2021/06/06 09:01:50;;;;;;;11.38;6.50;;;18.60;89.10;;;;;;4995709;28;20431;-82
2021/06/06 09:04:22;;;;;;;11.60;6.85;;;18.70;89.00;;;;;;4996818;28;20030;-80
2021/06/06 09:07:09;;;;;;;11.20;6.63;;;18.80;89.10;;;;;;4995954;28;20026;-79
2021/06/06 09:09:42;;;;;;;9.45;6.18;;;18.80;88.80;;;;;;4975889;28;20427;-76
2021/06/06 09:12:13;;;;;;;10.35;6.07;;;18.80;87.80;;;;;;4994436;28;20019;-80
2021/06/06 09:14:39;;;;;;;11.13;6.28;;;18.90;87.90;;;;;;4994772;28;20039;-85
2021/06/06 09:17:17;;;;;;;11.65;6.30;;;18.90;87.50;;;;;;4993793;28;20080;-81
2021/06/06 09:19:53;;;;;;;11.13;6.43;;;18.90;86.70;;;;;;4994057;28;20025;-83
2021/06/06 09:22:38;;;;;;;10.82;6.22;;;18.90;86.70;;;;;;4976583;28;20094;-86
2021/06/06 09:25:33;;;;;;;11.10;6.45;;;18.90;86.70;;;;;;4976763;28;20076;-83
2021/06/06 09:28:06;;;;;;;10.02;6.35;;;18.90;86.50;;;;;;4987892;28;20042;-84
2021/06/06 09:30:33;;;;;;;7.90;5.45;;;19.00;86.20;;;;;;4995329;28;20022;-81
2021/06/06 09:33:19;;;;;;;11.45;6.88;;;19.00;86.50;;;;;;4993758;28;20022;-82
2021/06/06 09:35:54;;;;;;;11.13;6.05;;;19.00;86.50;;;;;;4992772;28;20038;-82
2021/06/06 09:38:30;;;;;;;11.65;5.97;;;19.10;86.20;;;;;;4993979;28;20030;-89
2021/06/06 09:41:14;;;;;;;10.10;5.82;;;19.20;86.10;;;;;;4975123;28;20041;-89
2021/06/06 09:43:41;;;;;;;8.32;5.22;;;19.20;85.90;;;;;;4968192;28;20054;-89
2021/06/06 09:46:19;;;;;;;8.50;5.45;;;19.30;85.80;;;;;;4949092;28;20031;-92
2021/06/06 09:48:46;;;;;;;9.52;5.57;;;19.40;85.70;;;;;;4975524;28;20084;-90
2021/06/06 09:51:17;;;;;;;8.30;5.32;;;19.40;85.80;;;;;;4977248;28;20027;-92
2021/06/06 09:53:43;;;;;;;9.80;5.32;;;19.40;85.80;;;;;;4981598;28;20498;-88
2021/06/06 09:56:21;;;;;;;7.72;4.38;;;19.40;85.30;;;;;;4985924;28;20022;-90
2021/06/06 09:58:50;;;;;;;7.60;4.72;;;19.40;85.20;;;;;;4980815;28;20034;-87
2021/06/06 10:01:18;;;;;;;8.38;4.93;;;19.50;85.20;;;;;;4967313;28;20030;-88
2021/06/06 10:04:02;;;;;;;10.20;5.28;;;19.50;84.60;;;;;;4977404;28;20799;-91
2021/06/06 10:06:38;;;;;;;8.13;4.82;;;19.60;84.10;;;;;;4959878;28;20374;-90
2021/06/06 10:09:22;;;;;;;9.45;4.80;;;19.60;83.80;;;;;;4976991;28;20022;-88
2021/06/06 10:12:27;;;;;;;7.82;4.10;;;19.60;84.30;;;;;;4975417;28;20022;-88
2021/06/06 10:15:05;;;;;;;8.60;4.60;;;19.60;84.80;;;;;;4960219;28;20030;-88
2021/06/06 10:18:09;;;;;;;8.20;4.80;;;19.60;84.30;;;;;;4994405;28;20035;-80
2021/06/06 10:20:39;;;;;;;6.78;4.22;;;19.60;84.20;;;;;;4962159;28;20030;-88
2021/06/06 10:23:32;;;;;;;6.80;4.65;;;19.60;84.10;;;;;;4961281;28;20023;-90
2021/06/06 10:26:34;;;;;;;7.00;4.45;;;19.60;83.50;;;;;;4977923;28;20067;-89
2021/06/06 10:29:23;;;;;;;7.25;4.13;;;19.70;83.90;;;;;;4976884;28;20106;-91
2021/06/06 10:31:50;;;;;;;6.90;3.97;;;19.70;83.70;;;;;;4977586;28;20019;-88
2021/06/06 10:34:30;;;;;;;6.88;4.05;;;19.90;83.60;;;;;;4961767;28;20030;-90
2021/06/06 10:36:57;;;;;;;;;;;20.00;83.50;;;;;;4980302;28;20345;-87
2021/06/06 10:39:33;;;;;;;7.40;4.38;;;20.20;82.90;;;;;;4960869;28;19913;-91
2021/06/06 10:42:11;;;;;;;7.88;3.90;;;20.30;82.30;;;;;;4978690;28;20061;-90
2021/06/06 10:44:58;;;;;;;5.50;3.60;;;20.30;82.40;;;;;;4979334;28;20045;-89
2021/06/06 10:47:52;;;;;;;5.38;3.15;;;20.30;82.20;;;;;;4980181;28;20019;-90
2021/06/06 10:51:06;;;;;;;4.90;3.47;;;20.50;82.20;;;;;;4982849;28;20096;-90
2021/06/06 10:53:32;;;;;;;7.72;4.28;;;20.50;82.50;;;;;;4925174;29;20035;-87
2021/06/06 10:56:04;;;;;;;8.00;4.35;;;20.60;82.00;;;;;;4955533;28;20114;-83
2021/06/06 10:58:48;;;;;;;7.00;4.03;;;20.50;81.40;;;;;;4977579;28;20124;-83
2021/06/06 11:01:27;;;;;;;8.32;3.97;;;20.30;81.10;;;;;;4976802;28;20099;-83
2021/06/06 11:04:17;;;;;;;7.18;3.67;;;20.30;82.00;;;;;;4974672;28;20105;-89
2021/06/06 11:06:48;;;;;;;9.80;3.72;;;20.30;81.90;;;;;;4976920;28;20030;-84
2021/06/06 11:09:26;;;;;;;6.30;3.83;;;20.40;81.80;;;;;;4978441;28;20021;-84
2021/06/06 11:12:02;;;;;;;6.95;3.80;;;20.50;81.40;;;;;;4976950;28;20027;-92
2021/06/06 11:14:41;;;;;;;6.53;4.18;;;20.60;80.30;;;;;;4973797;28;20070;-92
2021/06/06 11:17:11;;;;;;;5.85;3.95;;;20.70;79.90;;;;;;4962924;28;20550;-92
2021/06/06 11:19:37;;;;;;;6.55;3.60;;;20.70;79.30;;;;;;4960993;28;20122;-87
2021/06/06 11:22:06;;;;;;;7.80;4.53;;;20.70;79.60;;;;;;4961598;28;20030;-91
2021/06/06 11:24:40;;;;;;;7.68;3.75;;;20.80;79.50;;;;;;4960581;28;20097;-87
2021/06/06 11:27:16;;;;;;;8.60;4.00;;;20.90;79.50;;;;;;4961636;28;20023;-91
2021/06/06 11:29:47;;;;;;;7.22;4.15;;;20.90;79.50;;;;;;4961870;28;20054;-91
2021/06/06 11:32:13;;;;;;;;;;;20.90;78.90;;;;;;4978622;28;20038;-91
2021/06/06 11:34:44;;;;;;;6.30;3.63;;;21.00;78.90;;;;;;4970902;28;19913;-83
2021/06/06 11:37:28;;;;;;;5.43;3.23;;;21.10;78.60;;;;;;4972423;28;20029;-90
2021/06/06 11:39:55;;;;;;;6.93;3.00;;;21.30;78.50;;;;;;4963481;28;20018;-92
2021/06/06 11:42:36;;;;;;;5.07;3.17;;;21.40;78.60;;;;;;4961755;28;20034;-89
2021/06/06 11:45:09;;;;;;;5.20;3.00;;;21.60;78.20;;;;;;4978854;28;20053;-89
2021/06/06 11:47:48;;;;;;;5.97;3.13;;;21.80;78.10;;;;;;4966171;28;20062;-90
2021/06/06 11:50:26;;;;;;;5.68;3.35;;;21.80;77.80;;;;;;4960522;28;20019;-91
2021/06/06 11:52:54;;;;;;;4.78;3.00;;;21.90;76.80;;;;;;4979178;28;20023;-91
2021/06/06 11:55:28;;;;;;;5.15;3.10;;;21.80;76.30;;;;;;4978448;28;20030;-92
2021/06/06 11:58:26;;;;;;;4.90;2.95;;;21.80;76.60;;;;;;4963748;28;20031;-84
2021/06/06 12:01:15;;;;;;;7.10;3.33;;;22.00;76.80;;;;;;4985912;28;20058;-84
2021/06/06 12:03:43;;;;;;;4.80;2.58;;;22.10;75.30;;;;;;4989733;28;20077;-83
2021/06/06 12:06:25;;;;;;;5.88;2.67;;;22.10;75.40;;;;;;4991461;28;20041;-82
2021/06/06 12:08:57;;;;;;;6.65;2.92;;;22.10;74.30;;;;;;4991229;28;20025;-81
2021/06/06 12:11:34;;;;;;;4.63;2.50;;;22.00;74.00;;;;;;4989343;28;20027;-82
2021/06/06 12:14:11;;;;;;;4.13;2.15;;;22.00;74.60;;;;;;4990280;28;20041;-83
2021/06/06 12:16:49;;;;;;;4.57;2.33;;;22.10;74.70;;;;;;4990919;28;20029;-85
2021/06/06 12:19:18;;;;;;;4.57;2.35;;;22.30;74.60;;;;;;4989692;28;20027;-83
2021/06/06 12:21:46;;;;;;;5.28;2.70;;;22.40;74.10;;;;;;4990075;28;20021;-81
2021/06/06 12:24:24;;;;;;;5.70;2.60;;;22.40;74.10;;;;;;4973684;28;20088;-84
2021/06/06 12:27:02;;;;;;;4.15;2.47;;;22.50;72.80;;;;;;4988660;28;20092;-84
2021/06/06 12:29:32;;;;;;;4.78;2.58;;;22.30;72.70;;;;;;4991759;28;20158;-83
2021/06/06 12:32:11;;;;;;;2.67;1.90;;;22.30;73.30;;;;;;4973612;28;20026;-83
2021/06/06 12:34:39;;;;;;;2.97;2.40;;;22.30;73.50;;;;;;4988933;28;20033;-81
2021/06/06 12:37:11;;;;;;;3.45;2.20;;;22.30;73.50;;;;;;4994682;28;20344;-83
2021/06/06 12:39:42;;;;;;;3.47;2.30;;;22.30;73.00;;;;;;4994088;28;20033;-82
2021/06/06 12:42:10;;;;;;;5.80;2.15;;;22.40;72.60;;;;;;4977278;28;20026;-82
2021/06/06 12:44:43;;;;;;;3.78;2.22;;;22.50;72.20;;;;;;4978456;28;20081;-83
2021/06/06 12:47:29;;;;;;;5.03;2.38;;;22.80;71.60;;;;;;4977414;28;20022;-81
2021/06/06 12:50:02;;;;;;;3.40;2.03;;;22.90;70.80;;;;;;4966148;28;20090;-82
2021/06/06 12:52:32;;;;;;;2.42;2.00;;;22.90;70.50;;;;;;4980253;28;20022;-83
2021/06/06 12:55:10;;;;;;;3.72;2.08;;;23.00;69.90;;;;;;4976102;28;20038;-83
2021/06/06 12:57:37;;;;;;;3.17;2.22;;;23.00;69.80;;;;;;4957877;28;20022;-82